createdAt,value
2023-05-05T05:03:46.676Z,98087.34
2023-05-05T05:08:48.361Z,98092.69
2023-05-05T05:13:50.302Z,98094.75
2023-05-05T05:18:51.724Z,98099.25
2023-05-05T05:23:53.836Z,98098.03
2023-05-05T05:28:55.640Z,98097.31
2023-05-05T05:33:58.012Z,98094.41
2023-05-05T05:38:59.779Z,98097.63
2023-05-05T05:44:02.723Z,98093.03
2023-05-05T05:49:04.745Z,98092.28
2023-05-05T05:54:06.774Z,98098.72
2023-05-05T05:59:10.101Z,98101.66
2023-05-05T06:04:13.333Z,98100.63
2023-05-05T06:09:15.117Z,98094.88
2023-05-05T06:14:18.836Z,98100.47
2023-05-05T06:19:22.190Z,98096.38
2023-05-05T06:24:24.654Z,98104.56
2023-05-05T06:29:26.628Z,98108.94
2023-05-05T06:34:28.114Z,98103.19
2023-05-05T06:39:29.563Z,98102.66
2023-05-05T06:44:34.540Z,98106.66
2023-05-05T06:49:36.460Z,98103.25
2023-05-05T06:54:38.000Z,98099.28
2023-05-05T06:59:39.484Z,98101.44
2023-05-05T07:04:41.384Z,98106.09
2023-05-05T07:09:45.121Z,98103.44
2023-05-05T07:14:46.843Z,98095.63
2023-05-05T07:19:48.561Z,98089.09
2023-05-05T07:24:51.675Z,98099.91
2023-05-05T07:29:53.211Z,98096.47
2023-05-05T07:34:54.869Z,98093.41
2023-05-05T07:39:56.425Z,98105.25
2023-05-05T07:44:57.872Z,98103.66
2023-05-05T07:49:59.439Z,98102.44
2023-05-05T07:55:01.162Z,98106.44
2023-05-05T08:00:03.654Z,98103.34
2023-05-05T08:05:13.495Z,98097.78
2023-05-05T08:10:15.098Z,98105.81
2023-05-05T08:15:16.628Z,98106.03
2023-05-05T08:20:19.898Z,98106.00
2023-05-05T08:25:21.502Z,98108.06
2023-05-05T08:30:23.114Z,98095.59
2023-05-05T08:35:24.708Z,98096.81
2023-05-05T08:40:31.816Z,98080.97
2023-05-05T08:45:33.504Z,98082.31
2023-05-05T08:50:38.576Z,98083.63
2023-05-05T08:55:48.853Z,98086.84
2023-05-05T09:00:51.855Z,98091.72
2023-05-05T09:05:53.784Z,98088.50
2023-05-05T09:10:55.739Z,98093.78
2023-05-05T09:16:00.670Z,98092.59
2023-05-05T09:21:18.855Z,98085.19
2023-05-05T09:26:20.969Z,98084.06
2023-05-05T09:31:22.534Z,98083.53
2023-05-05T09:36:48.675Z,98089.47
2023-05-05T09:41:50.159Z,98088.41
2023-05-05T09:46:52.918Z,98079.41
2023-05-05T09:51:54.899Z,98068.06
2023-05-05T09:56:57.533Z,98064.00
2023-05-05T10:02:11.940Z,98060.06
2023-05-05T10:07:24.326Z,98064.44
2023-05-05T10:12:27.393Z,98050.50
2023-05-05T10:17:32.991Z,98052.34
2023-05-05T10:22:35.354Z,98042.03
2023-05-05T10:27:45.882Z,98040.75
2023-05-05T10:33:04.134Z,98032.06
2023-05-05T10:38:14.040Z,98039.72
2023-05-05T10:43:15.707Z,98036.75
2023-05-05T10:48:39.857Z,98020.72
2023-05-05T10:54:06.977Z,98019.31
2023-05-05T10:59:36.701Z,98009.56
2023-05-05T11:04:38.258Z,98014.38
2023-05-05T11:09:55.680Z,98007.34
2023-05-05T11:15:31.033Z,97995.13
2023-05-05T11:20:43.385Z,97986.47
2023-05-05T11:25:45.236Z,97984.25
2023-05-05T11:30:56.174Z,97980.16
2023-05-05T11:35:59.103Z,97976.38
2023-05-05T11:41:10.926Z,97967.56
2023-05-05T11:46:13.994Z,97965.09
2023-05-05T11:51:17.138Z,97957.28
2023-05-05T11:56:24.784Z,97966.91
2023-05-05T12:01:26.630Z,97957.78
2023-05-05T12:06:32.097Z,97951.91
2023-05-05T12:11:33.609Z,97957.75
2023-05-05T12:16:35.220Z,97953.09
2023-05-05T12:21:36.748Z,97956.06
2023-05-05T12:26:38.248Z,97960.09
2023-05-05T12:31:42.329Z,97944.88
2023-05-05T12:36:44.362Z,97949.81
2023-05-05T12:41:46.383Z,97946.41
2023-05-05T12:46:49.053Z,97946.78
2023-05-05T12:51:55.612Z,97945.00
2023-05-05T12:56:57.269Z,97946.19
2023-05-05T13:02:02.344Z,97940.22
2023-05-05T13:07:12.239Z,97935.69
2023-05-05T13:12:14.822Z,97941.91
2023-05-05T13:17:16.900Z,97940.78
2023-05-05T13:22:18.401Z,97925.47
2023-05-05T13:27:20.206Z,97921.66
2023-05-05T13:32:21.536Z,97917.03
2023-05-05T13:37:23.085Z,97912.81
2023-05-05T13:42:24.609Z,97892.47
2023-05-05T13:47:26.118Z,97902.16
2023-05-05T13:52:27.734Z,97890.13
2023-05-05T13:57:30.045Z,97903.94
2023-05-05T14:02:31.602Z,97884.44
2023-05-05T14:07:33.193Z,97885.81
2023-05-05T14:12:34.676Z,97873.34
2023-05-05T14:17:36.187Z,97886.44
2023-05-05T14:22:37.914Z,97870.38
2023-05-05T14:27:39.640Z,97878.25
2023-05-05T14:32:41.123Z,97870.91
2023-05-05T14:37:42.589Z,97872.25
2023-05-05T14:42:44.093Z,97867.31
2023-05-05T14:47:45.624Z,97868.03
2023-05-05T14:52:47.107Z,97859.81
2023-05-05T14:57:48.555Z,97872.75
2023-05-05T15:02:50.127Z,97863.25
2023-05-05T15:07:51.494Z,97848.75
2023-05-05T15:12:53.104Z,97852.69
2023-05-05T15:17:54.531Z,97842.47
2023-05-05T15:22:56.186Z,97843.78
2023-05-05T15:27:58.766Z,97833.69
2023-05-05T15:33:00.457Z,97841.81
2023-05-05T15:38:03.449Z,97823.53
2023-05-05T15:43:05.235Z,97841.16
2023-05-05T15:48:07.468Z,97834.78
2023-05-05T15:53:08.935Z,97827.81
2023-05-05T15:58:10.600Z,97832.94
2023-05-05T16:03:12.106Z,97827.97
2023-05-05T16:08:13.776Z,97825.69
2023-05-05T16:13:15.694Z,97818.25
2023-05-05T16:18:17.206Z,97824.41
2023-05-05T16:23:18.704Z,97820.50
2023-05-05T16:28:20.166Z,97817.44
2023-05-05T16:33:22.606Z,97816.47
2023-05-05T16:38:24.161Z,97813.81
2023-05-05T16:43:25.736Z,97811.41
2023-05-05T16:48:27.338Z,97811.44
2023-05-05T16:53:29.035Z,97817.75
2023-05-05T16:58:30.492Z,97825.69
2023-05-05T17:03:32.042Z,97819.56
2023-05-05T17:08:33.521Z,97813.72
2023-05-05T17:14:00.572Z,97808.16
2023-05-05T17:19:02.097Z,97816.13
2023-05-05T17:24:03.767Z,97803.47
2023-05-05T17:29:05.367Z,97804.72
2023-05-05T17:34:06.856Z,97812.44
2023-05-05T17:39:10.365Z,97805.56
2023-05-05T17:44:11.792Z,97809.50
2023-05-05T17:49:13.240Z,97796.34
2023-05-05T17:54:14.735Z,97797.81
2023-05-05T17:59:16.197Z,97785.41
2023-05-05T18:04:17.682Z,97801.13
2023-05-05T18:09:20.602Z,97798.47
2023-05-05T18:14:25.036Z,97806.41
2023-05-05T18:19:26.699Z,97806.53
2023-05-05T18:24:28.348Z,97799.38
2023-05-05T18:29:29.901Z,97805.75
2023-05-05T18:34:31.787Z,97805.66
2023-05-05T18:39:33.307Z,97805.78
2023-05-05T18:44:35.548Z,97818.63
2023-05-05T18:49:37.422Z,97820.41
2023-05-05T18:54:38.881Z,97819.47
2023-05-05T18:59:40.460Z,97824.16
2023-05-05T19:04:42.177Z,97827.47
2023-05-05T19:09:43.646Z,97830.31
2023-05-05T19:14:45.312Z,97829.84
2023-05-05T19:19:46.769Z,97825.59
2023-05-05T19:24:48.308Z,97824.06
2023-05-05T19:29:52.251Z,97835.81
2023-05-05T19:34:54.403Z,97840.41
2023-05-05T19:39:56.377Z,97839.56
2023-05-05T19:44:58.118Z,97833.44
2023-05-05T19:49:59.669Z,97840.00
2023-05-05T19:55:01.560Z,97828.19
2023-05-05T20:00:03.707Z,97821.00
2023-05-05T20:05:06.311Z,97817.75
2023-05-05T20:10:09.042Z,97808.94
2023-05-05T20:15:11.388Z,97808.78
2023-05-05T20:20:16.956Z,97806.53
2023-05-05T20:25:18.588Z,97800.19
2023-05-05T20:30:20.392Z,97802.97
2023-05-05T20:35:21.892Z,97800.59
2023-05-05T20:40:23.330Z,97798.59
2023-05-05T20:45:25.645Z,97786.84
2023-05-05T20:50:27.013Z,97781.06
2023-05-05T20:55:28.579Z,97788.81
2023-05-05T21:00:30.116Z,97780.94
2023-05-05T21:05:31.740Z,97777.41
2023-05-05T21:10:33.678Z,97781.19
2023-05-05T21:15:38.356Z,97774.09
2023-05-05T21:20:39.817Z,97768.13
2023-05-05T21:25:41.393Z,97762.13
2023-05-05T21:30:42.857Z,97754.50
2023-05-05T21:35:44.322Z,97749.34
2023-05-05T21:40:45.906Z,97751.69
2023-05-05T21:45:47.368Z,97761.72
2023-05-05T21:50:48.880Z,97756.78
2023-05-05T21:55:50.481Z,97761.19
